x

Isle Of Shoals, Nh (iosn3) Weather Station

10:00pm - Thu 25th Dec 2014 All times are EST. -5 hours from GMT.

  • Wind
    20mph, 24mph gusts
  • 空気 Temp 45°f
  • Sea Pressure 1011mb
  • Isle Of Shoals, Nh
  • Isle Of Shoals, Nh

More Historic Weather Station data

Upgrade to MSW Pro to gain access to the past 30 days of data for over 8000 Wavebouys and Weather Stations around the globe.

Join Pro

Comparision Forecast

View Surf forecast
   
Thu 12/25 10:00pm 20 24 mph 1011mb 45f
9:00pm 24 28 mph 1009.9mb 46f
8:00pm 28 31 mph 1008.3mb 46f
7:00pm 30 34 mph 1006.9mb 47f
6:00pm 21 24 mph 1006.1mb 47f
5:00pm 24 26 mph 1004.9mb 48f
4:00pm 24 28 mph 1003.8mb 49f
3:00pm 41 47 mph 1001.3mb 50f
2:00pm 33 41 mph 1000.3mb 51f
1:00pm 29 31 mph 999.4mb 50f
12:00pm 25 31 mph 998.9mb 49f
11:00am 22 24 mph 999.1mb 50f
10:00am 23 28 mph 998.5mb 51f
9:00am 30 33 mph 997.3mb 51f
8:00am 31
mph
996.4mb 55f
7:00am 21 22 mph 997.4mb 50f
6:00am 9 10 mph 996.9mb 49f
5:00am 8 9 mph 996.8mb 45f
4:00am 1 3 mph 998.1mb 43f
3:00am 3 5 mph 998.7mb 42f
2:00am 3 5 mph 999.5mb 41f
1:00am 13 14 mph 999.3mb 42f
12:00am 17 18 mph 999.3mb 41f
Wed 12/24 11:00pm 14 15 mph 1000.9mb 41f
10:00pm 14 15 mph 1002.4mb 43f
9:00pm 15 16 mph 1003.5mb 42f
8:00pm 15 17 mph 1005.3mb 41f
7:00pm 18 21 mph 1006.5mb 42f
6:00pm 17 20 mph 1007.8mb 43f
5:00pm 20 22 mph 1008.5mb 43f
4:00pm 20 22 mph 1009.7mb 42f
3:00pm 17 21 mph 1010.8mb 41f
2:00pm 20 22 mph 1012.1mb 42f
1:00pm 22 24 mph 1012.9mb 41f
12:00pm 23 25 mph 1014.1mb 41f
11:00am 21 23 mph 1016.2mb 41f
10:00am 22 23 mph 1017.3mb 41f
9:00am 20 23 mph 1017.3mb 41f
8:00am 26 29 mph 1018.1mb 39f
7:00am 24 28 mph 1019.2mb 40f
6:00am 28 31 mph 1018.6mb 40f
5:00am 26 30 mph 1019.1mb 39f
4:00am 23 25 mph 1019.8mb 39f
3:00am 25 29 mph 1019.9mb 39f
2:00am 29 31 mph 1019.9mb 40f
1:00am 26 29 mph 1020.3mb 39f
12:00am 23 26 mph 1021.1mb 39f
Tue 12/23 11:00pm 26 31 mph 1021mb 40f
10:00pm 24 26 mph 1021.4mb 40f
9:00pm 26 29 mph 1021.6mb 40f
8:00pm 26 28 mph 1021.8mb 39f
7:00pm 24 26 mph 1022.1mb 40f
6:00pm 22 25 mph 1022.1mb 39f
5:00pm 24 26 mph 1021.2mb 45f
4:00pm 23 26 mph 1021.7mb 44f
3:00pm 25 28 mph 1021.8mb 44f
2:00pm 26 28 mph 1021.5mb 44f
1:00pm 29 30 mph 1021.6mb 44f
12:00pm 29 32 mph 1022.1mb 43f
11:00am 30 31 mph 1023.3mb 43f
10:00am 28 29 mph 1024.5mb 43f
9:00am 25 28 mph 1024.9mb 43f
8:00am 28 30 mph 1024.4mb 43f
7:00am 23 25 mph 1025.5mb 43f
6:00am 21 23 mph 1025.2mb 43f
5:00am 30 32 mph 1022.6mb 43f
4:00am 23 24 mph 1024.2mb 43f
3:00am 21 22 mph 1024.9mb 43f
2:00am 18 21 mph 1024.7mb 43f
1:00am 16
mph
1025mb 43f
12:00am 23 24 mph 1025mb 43f
Mon 12/22 11:00pm 22 24 mph 1025.8mb 44f
10:00pm 23 25 mph 1025.7mb 44f
9:00pm 21 22 mph 1026.1mb 44f
8:00pm 17 21 mph 1026.4mb 44f
7:00pm 9 11 mph 1026.7mb 43f
6:00pm 15 16 mph 1026.6mb 42f
5:00pm 11 13 mph 1026.6mb 43f
4:00pm 13 14 mph 1026.1mb 43f
3:00pm 20 21 mph 1026.7mb 39f
2:00pm 16 18 mph 1026.9mb 39f
1:00pm 20 22 mph 1026.9mb 39f
12:00pm 18 20 mph 1026.8mb 40f
11:00am 20 23 mph 1027.8mb 39f
10:00am 18 20 mph 1028.6mb 38f
9:00am 17 21 mph 1028.6mb 37f
8:00am 17 18 mph 1028.5mb 35f
7:00am 14 16 mph 1028.5mb 35f
6:00am 18 20 mph 1028.1mb 34f
5:00am 18 20 mph 1027.5mb 34f